Time;durP1;ratioP1;P1;durP2;ratioP2;P2;SDS_P1;SDS_P2;PMS_P1;PMS_P2;Temp;Humidity;BMP_temperature;BMP_pressure;BME280_temperature;BME280_humidity;BME280_pressure;Samples;Min_cycle;Max_cycle;Signal;HPM_P1;HPM_P2
2022/08/07 00:01:08;;;;;;;4.70;3.50;;;12.80;99.90;;;;;;5013793;28;20179;-63
2022/08/07 00:03:35;;;;;;;3.45;2.97;;;12.80;99.90;;;;;;5013790;28;20182;-63
2022/08/07 00:06:01;;;;;;;3.92;2.80;;;12.80;99.90;;;;;;5013673;28;20182;-63
2022/08/07 00:08:27;;;;;;;3.20;2.92;;;12.70;99.90;;;;;;5013532;28;20323;-63
2022/08/07 00:10:53;;;;;;;2.90;2.67;;;12.70;99.90;;;;;;5013553;28;20164;-63
2022/08/07 00:13:20;;;;;;;8.00;3.30;;;12.60;99.90;;;;;;5013586;28;20652;-63
2022/08/07 00:15:47;;;;;;;3.13;2.83;;;12.50;99.90;;;;;;4995948;28;20172;-63
2022/08/07 00:18:15;;;;;;;3.43;3.13;;;12.50;99.90;;;;;;4995924;28;20206;-64
2022/08/07 00:20:40;;;;;;;6.50;3.23;;;12.40;99.90;;;;;;5017650;28;20187;-63
2022/08/07 00:23:06;;;;;;;3.00;2.80;;;12.40;99.90;;;;;;5018021;28;20633;-63
2022/08/07 00:25:33;;;;;;;4.03;3.03;;;12.20;99.90;;;;;;5017443;28;20668;-62
2022/08/07 00:27:59;;;;;;;4.13;3.00;;;12.10;99.90;;;;;;5017812;28;20210;-63
2022/08/07 00:30:24;;;;;;;3.60;3.30;;;12.10;99.90;;;;;;5017908;28;20176;-63
2022/08/07 00:32:51;;;;;;;5.03;3.37;;;12.10;99.90;;;;;;5018109;28;20179;-63
2022/08/07 00:35:17;;;;;;;6.18;3.47;;;12.20;99.90;;;;;;5017382;28;20183;-63
2022/08/07 00:37:43;;;;;;;3.90;3.37;;;12.20;99.90;;;;;;5017248;28;20206;-63
2022/08/07 00:40:10;;;;;;;5.00;3.13;;;12.20;99.90;;;;;;5017693;28;20672;-63
2022/08/07 00:42:36;;;;;;;4.63;3.17;;;12.20;99.90;;;;;;5017204;28;20290;-63
2022/08/07 00:45:03;;;;;;;3.93;2.90;;;12.30;99.90;;;;;;5017401;28;20222;-63
2022/08/07 00:47:30;;;;;;;4.40;2.67;;;12.20;99.90;;;;;;5017218;28;20242;-63
2022/08/07 00:49:55;;;;;;;4.97;3.00;;;12.20;99.90;;;;;;5017866;28;20221;-62
2022/08/07 00:52:21;;;;;;;3.53;2.70;;;12.10;99.90;;;;;;5017241;28;20175;-63
2022/08/07 00:54:47;;;;;;;5.00;3.10;;;12.10;99.90;;;;;;5017158;28;20421;-63
2022/08/07 00:57:14;;;;;;;6.67;3.07;;;12.00;99.90;;;;;;5016739;28;20211;-63
2022/08/07 00:59:40;;;;;;;4.88;3.17;;;12.00;99.90;;;;;;5017123;28;20198;-63
2022/08/07 01:02:07;;;;;;;5.90;3.07;;;12.00;99.90;;;;;;5017287;28;20250;-63
2022/08/07 01:04:33;;;;;;;3.50;3.20;;;12.00;99.90;;;;;;5017084;28;20177;-63
2022/08/07 01:07:00;;;;;;;4.33;3.23;;;12.10;99.90;;;;;;5016795;28;20212;-62
2022/08/07 01:09:26;;;;;;;3.73;3.23;;;12.10;99.90;;;;;;5016881;28;20178;-63
2022/08/07 01:11:53;;;;;;;8.90;3.50;;;12.00;99.90;;;;;;5016865;28;20174;-63
2022/08/07 01:14:20;;;;;;;4.27;3.30;;;11.90;99.90;;;;;;5017195;28;20160;-63
2022/08/07 01:16:47;;;;;;;6.47;3.20;;;11.80;99.90;;;;;;5017054;28;20223;-63
2022/08/07 01:19:14;;;;;;;4.70;3.17;;;11.70;99.90;;;;;;5017315;28;20688;-63
2022/08/07 01:21:40;;;;;;;4.43;3.00;;;11.70;99.90;;;;;;5016995;28;20191;-63
2022/08/07 01:24:08;;;;;;;4.80;2.90;;;11.70;99.90;;;;;;5017358;28;20180;-63
2022/08/07 01:26:34;;;;;;;4.03;3.23;;;11.70;99.90;;;;;;5016658;28;20214;-63
2022/08/07 01:29:00;;;;;;;4.60;2.90;;;11.70;99.90;;;;;;5017008;28;20171;-63
2022/08/07 01:31:32;;;;;;;4.10;2.90;;;11.70;99.90;;;;;;5016040;28;20171;-63
2022/08/07 01:33:59;;;;;;;4.63;3.50;;;11.70;99.90;;;;;;4998984;28;20218;-63
2022/08/07 01:36:27;;;;;;;5.50;3.13;;;11.60;99.90;;;;;;5031594;28;20179;-63
2022/08/07 01:38:53;;;;;;;3.40;3.20;;;11.60;99.90;;;;;;5016446;28;20180;-63
2022/08/07 01:41:19;;;;;;;4.43;3.83;;;11.60;99.90;;;;;;5016374;28;20293;-63
2022/08/07 01:43:46;;;;;;;5.83;3.90;;;11.50;99.90;;;;;;5016602;28;20230;-63
2022/08/07 01:46:14;;;;;;;4.63;3.93;;;11.50;99.90;;;;;;5016408;28;20670;-62
2022/08/07 01:48:41;;;;;;;5.40;3.80;;;11.40;99.90;;;;;;5016677;28;20187;-63
2022/08/07 01:51:15;;;;;;;4.53;3.90;;;11.40;99.90;;;;;;5016242;28;20172;-63
2022/08/07 01:53:44;;;;;;;4.30;3.90;;;11.30;99.90;;;;;;5016453;28;20187;-63
2022/08/07 01:56:15;;;;;;;4.73;4.03;;;11.30;99.90;;;;;;5015690;28;20664;-63
2022/08/07 01:58:49;;;;;;;5.47;3.43;;;11.30;99.90;;;;;;5016822;28;20528;-63
2022/08/07 02:01:22;;;;;;;6.63;3.53;;;11.40;99.90;;;;;;5015997;28;20171;-63
2022/08/07 02:03:59;;;;;;;5.43;3.50;;;11.40;99.90;;;;;;5016218;28;20242;-63
2022/08/07 02:06:29;;;;;;;5.90;3.33;;;11.50;99.90;;;;;;4998133;28;20200;-62
2022/08/07 02:08:56;;;;;;;5.70;3.87;;;11.40;99.90;;;;;;5016079;28;20175;-63
2022/08/07 02:11:22;;;;;;;10.00;4.17;;;11.40;99.90;;;;;;5015714;28;20172;-63
2022/08/07 02:13:49;;;;;;;4.70;3.77;;;11.30;99.90;;;;;;5015764;28;20178;-63
2022/08/07 02:16:17;;;;;;;4.33;3.60;;;11.30;99.90;;;;;;5015574;28;20199;-62
2022/08/07 02:18:45;;;;;;;7.03;3.93;;;11.20;99.90;;;;;;5030930;28;20259;-63
2022/08/07 02:21:12;;;;;;;5.97;3.83;;;11.20;99.90;;;;;;5030867;28;20589;-63
2022/08/07 02:23:39;;;;;;;4.33;3.93;;;11.30;99.90;;;;;;5015428;28;20183;-64
2022/08/07 02:26:07;;;;;;;5.73;3.57;;;11.20;99.90;;;;;;5015169;28;20192;-63
2022/08/07 02:28:35;;;;;;;4.17;3.60;;;11.10;99.90;;;;;;4997971;28;20184;-63
2022/08/07 02:31:02;;;;;;;4.97;3.90;;;11.00;99.90;;;;;;4997806;28;20172;-63
2022/08/07 02:33:29;;;;;;;4.63;3.80;;;11.10;99.90;;;;;;5015592;28;20180;-63
2022/08/07 02:35:56;;;;;;;4.90;4.13;;;11.10;99.90;;;;;;5015567;28;20168;-63
2022/08/07 02:38:26;;;;;;;5.50;4.43;;;11.00;99.90;;;;;;5015242;28;20261;-63
2022/08/07 02:40:54;;;;;;;5.80;3.60;;;11.00;99.90;;;;;;5015785;28;20613;-63
2022/08/07 02:43:21;;;;;;;4.47;4.07;;;10.90;99.90;;;;;;5014771;28;20226;-63
2022/08/07 02:45:48;;;;;;;4.27;3.87;;;10.90;99.90;;;;;;5016022;28;20238;-62
2022/08/07 02:48:14;;;;;;;6.67;3.77;;;10.90;99.90;;;;;;5015195;28;20246;-62
2022/08/07 02:50:45;;;;;;;6.57;3.97;;;10.90;99.90;;;;;;5015234;28;20188;-62
2022/08/07 02:53:20;;;;;;;5.53;3.77;;;10.90;99.90;;;;;;5015577;28;20184;-62
2022/08/07 02:55:48;;;;;;;4.00;3.60;;;10.90;99.90;;;;;;4997320;28;20229;-63
2022/08/07 02:58:18;;;;;;;3.90;3.60;;;10.80;99.90;;;;;;5014822;28;20228;-63
2022/08/07 03:00:46;;;;;;;6.73;4.20;;;10.70;99.90;;;;;;5014943;28;20164;-63
2022/08/07 03:03:15;;;;;;;4.00;3.60;;;10.70;99.90;;;;;;5014891;28;20171;-63
2022/08/07 03:05:42;;;;;;;3.97;3.43;;;10.60;99.90;;;;;;5014653;28;20222;-63
2022/08/07 03:08:08;;;;;;;3.40;3.10;;;10.50;99.90;;;;;;5014604;28;20211;-63
2022/08/07 03:10:35;;;;;;;3.90;3.57;;;10.50;99.90;;;;;;5014812;28;20238;-62
2022/08/07 03:13:01;;;;;;;4.70;4.20;;;10.30;99.90;;;;;;5014472;28;20175;-63
2022/08/07 03:15:28;;;;;;;5.67;4.40;;;10.40;99.90;;;;;;5015155;28;20258;-63
2022/08/07 03:17:55;;;;;;;5.23;3.90;;;10.50;99.90;;;;;;5014497;28;20711;-62
2022/08/07 03:20:22;;;;;;;5.00;3.80;;;10.50;99.90;;;;;;5014556;28;20195;-63
2022/08/07 03:22:49;;;;;;;4.97;4.20;;;10.50;99.90;;;;;;5014601;28;20184;-63
2022/08/07 03:25:17;;;;;;;5.67;4.37;;;10.50;99.90;;;;;;5014991;28;20617;-63
2022/08/07 03:27:44;;;;;;;5.43;4.20;;;10.50;99.90;;;;;;4996431;28;20212;-63
2022/08/07 03:30:11;;;;;;;4.53;4.03;;;10.50;99.90;;;;;;5014622;28;20533;-62
2022/08/07 03:32:41;;;;;;;5.43;3.80;;;10.40;99.90;;;;;;5014326;28;20521;-62
2022/08/07 03:35:12;;;;;;;4.30;3.90;;;10.40;99.90;;;;;;4996709;28;20183;-63
2022/08/07 03:37:38;;;;;;;5.43;3.93;;;10.20;99.90;;;;;;5014240;28;20222;-63
2022/08/07 03:40:06;;;;;;;4.67;3.80;;;10.20;99.90;;;;;;5014917;28;20582;-62
2022/08/07 03:42:34;;;;;;;4.67;4.00;;;10.20;99.90;;;;;;5014103;28;20258;-63
2022/08/07 03:45:01;;;;;;;6.37;4.80;;;10.20;99.90;;;;;;4996484;28;20187;-63
2022/08/07 03:47:27;;;;;;;4.87;4.37;;;10.20;99.90;;;;;;5014057;28;20711;-63
2022/08/07 03:49:55;;;;;;;4.83;4.33;;;10.20;99.90;;;;;;4996546;28;20645;-62
2022/08/07 03:52:26;;;;;;;6.27;3.87;;;10.20;99.90;;;;;;4996382;28;20180;-63
2022/08/07 03:55:02;;;;;;;5.40;3.80;;;10.10;99.90;;;;;;5014288;28;20251;-63
2022/08/07 03:57:30;;;;;;;4.13;3.83;;;10.10;99.90;;;;;;5013617;28;20626;-62
2022/08/07 03:59:56;;;;;;;4.63;3.63;;;10.10;99.90;;;;;;5013900;28;20633;-63
2022/08/07 04:02:23;;;;;;;4.70;3.93;;;10.10;99.90;;;;;;5014273;28;20176;-63
2022/08/07 04:04:49;;;;;;;5.30;4.80;;;10.10;99.90;;;;;;5013934;28;20233;-63
2022/08/07 04:07:16;;;;;;;6.27;4.30;;;10.10;99.90;;;;;;5013675;28;20294;-63
2022/08/07 04:09:45;;;;;;;6.40;4.50;;;10.10;99.90;;;;;;5014160;28;20184;-63
2022/08/07 04:12:11;;;;;;;4.40;4.00;;;10.10;99.90;;;;;;5013917;28;20656;-63
2022/08/07 04:14:38;;;;;;;5.50;4.00;;;10.10;99.90;;;;;;5013928;28;20203;-63
2022/08/07 04:17:04;;;;;;;4.70;4.20;;;10.00;99.90;;;;;;5014281;28;20196;-63
2022/08/07 04:19:30;;;;;;;5.23;4.57;;;10.00;99.90;;;;;;5014139;28;20274;-63
2022/08/07 04:21:56;;;;;;;7.70;4.30;;;10.00;99.90;;;;;;5014357;28;20516;-63
2022/08/07 04:24:22;;;;;;;5.83;4.13;;;10.00;99.90;;;;;;5013888;28;20180;-62
2022/08/07 04:26:48;;;;;;;4.93;4.43;;;10.00;99.90;;;;;;5013690;28;20223;-62
2022/08/07 04:29:14;;;;;;;7.13;4.27;;;10.00;99.90;;;;;;4996179;28;20175;-62
2022/08/07 04:31:40;;;;;;;4.93;4.40;;;10.00;99.90;;;;;;5013788;28;20220;-63
2022/08/07 04:34:07;;;;;;;5.60;4.70;;;10.00;99.90;;;;;;5013656;28;20187;-62
2022/08/07 04:36:34;;;;;;;5.17;4.50;;;10.00;99.90;;;;;;5013397;28;20249;-62
2022/08/07 04:39:01;;;;;;;6.00;4.20;;;10.00;99.90;;;;;;5013971;28;20171;-62
2022/08/07 04:41:27;;;;;;;5.10;4.50;;;10.10;99.90;;;;;;5013261;28;20659;-62
2022/08/07 04:43:55;;;;;;;4.53;4.10;;;10.10;99.90;;;;;;5013513;28;20648;-62
2022/08/07 04:46:39;;;;;;;5.07;4.30;;;10.20;99.90;;;;;;5013866;28;20258;-63
2022/08/07 04:49:23;;;;;;;4.83;4.20;;;10.20;99.90;;;;;;5014312;28;20259;-62
2022/08/07 04:52:02;;;;;;;4.90;4.33;;;10.20;99.90;;;;;;5013528;28;20167;-62
2022/08/07 04:55:26;;;;;;;5.87;4.70;;;10.20;99.90;;;;;;5013575;28;20175;-63
2022/08/07 04:58:09;;;;;;;7.90;5.00;;;10.10;99.90;;;;;;4998702;28;20234;-63
2022/08/07 05:00:56;;;;;;;5.97;4.27;;;10.10;99.90;;;;;;5013600;28;20164;-62
2022/08/07 05:03:29;;;;;;;5.27;4.70;;;10.20;99.90;;;;;;5013938;28;20156;-63
2022/08/07 05:06:11;;;;;;;4.63;4.23;;;10.20;99.90;;;;;;4996591;28;20664;-63
2022/08/07 05:08:52;;;;;;;5.40;4.57;;;10.30;99.90;;;;;;5017504;28;20160;-62
2022/08/07 05:11:28;;;;;;;6.00;4.80;;;10.30;99.90;;;;;;5016992;28;20179;-63
2022/08/07 05:14:05;;;;;;;5.60;4.93;;;10.30;99.90;;;;;;5017227;28;20605;-62
2022/08/07 05:16:34;;;;;;;6.40;4.60;;;10.40;99.90;;;;;;5016763;28;20203;-62
2022/08/07 05:19:07;;;;;;;5.17;4.67;;;10.40;99.90;;;;;;5016754;28;20180;-62
2022/08/07 05:21:35;;;;;;;5.43;4.60;;;10.50;99.90;;;;;;4999189;28;20183;-63
2022/08/07 05:24:05;;;;;;;6.30;4.90;;;10.60;99.90;;;;;;5016697;28;20207;-62
2022/08/07 05:26:33;;;;;;;5.50;4.43;;;10.70;99.90;;;;;;5016609;28;20588;-64
2022/08/07 05:29:02;;;;;;;5.90;4.93;;;10.80;99.90;;;;;;5016878;28;20684;-62
2022/08/07 05:31:33;;;;;;;5.43;4.27;;;10.80;99.90;;;;;;5019659;28;20568;-62
2022/08/07 05:34:00;;;;;;;5.27;4.37;;;10.90;99.90;;;;;;5000099;28;20203;-63
2022/08/07 05:36:28;;;;;;;7.87;4.67;;;10.90;99.90;;;;;;5018569;28;20167;-60
2022/08/07 05:38:55;;;;;;;5.77;4.93;;;10.90;99.90;;;;;;5016692;28;20633;-60
2022/08/07 05:41:21;;;;;;;5.73;4.83;;;11.00;99.90;;;;;;5016535;28;20586;-61
2022/08/07 05:43:49;;;;;;;5.57;4.67;;;11.10;99.90;;;;;;5016515;28;20186;-60
2022/08/07 05:46:18;;;;;;;6.13;5.17;;;11.20;99.90;;;;;;5016611;28;20199;-61
2022/08/07 05:48:44;;;;;;;6.10;4.70;;;11.20;99.90;;;;;;5016820;28;20597;-60
2022/08/07 05:51:11;;;;;;;4.67;4.27;;;11.30;99.90;;;;;;5015962;28;20251;-61
2022/08/07 05:53:37;;;;;;;5.10;4.60;;;11.40;99.90;;;;;;5016257;28;20198;-61
2022/08/07 05:56:05;;;;;;;5.83;4.80;;;11.50;99.90;;;;;;5015770;28;20564;-60
2022/08/07 05:58:32;;;;;;;8.13;4.47;;;11.60;99.90;;;;;;5015561;28;20195;-61
2022/08/07 06:00:59;;;;;;;5.27;4.50;;;11.60;99.90;;;;;;4998208;28;20629;-60
2022/08/07 06:03:27;;;;;;;6.20;5.10;;;11.70;99.90;;;;;;5016232;28;20262;-62
2022/08/07 06:05:53;;;;;;;6.87;4.77;;;11.80;99.90;;;;;;5016000;28;20575;-60
2022/08/07 06:08:19;;;;;;;6.53;4.87;;;11.90;99.90;;;;;;4997874;28;20258;-62
2022/08/07 06:10:46;;;;;;;5.67;4.30;;;12.00;99.90;;;;;;5015643;28;20176;-60
2022/08/07 06:13:11;;;;;;;5.97;4.80;;;12.10;99.90;;;;;;5015263;28;20694;-60
2022/08/07 06:15:39;;;;;;;5.60;4.70;;;12.20;99.90;;;;;;5015743;28;20180;-60
2022/08/07 06:18:06;;;;;;;7.30;4.80;;;12.20;99.90;;;;;;5015213;28;20223;-61
2022/08/07 06:20:36;;;;;;;7.67;5.13;;;12.30;99.90;;;;;;5015376;28;20183;-60
2022/08/07 06:23:07;;;;;;;5.87;4.80;;;12.40;99.90;;;;;;5015910;28;20509;-61
2022/08/07 06:25:36;;;;;;;4.67;4.13;;;12.50;99.90;;;;;;4997752;28;20310;-61
2022/08/07 06:28:03;;;;;;;9.03;4.80;;;12.60;99.90;;;;;;5015060;28;20214;-61
2022/08/07 06:30:29;;;;;;;6.67;4.57;;;12.70;99.90;;;;;;5015295;28;20259;-61
2022/08/07 06:32:55;;;;;;;4.53;4.10;;;12.80;99.90;;;;;;5015455;28;20207;-61
2022/08/07 06:35:21;;;;;;;5.57;4.50;;;12.90;99.90;;;;;;5015496;28;20266;-61
2022/08/07 06:37:46;;;;;;;7.30;4.57;;;13.00;99.90;;;;;;5015123;28;20208;-60
2022/08/07 06:40:12;;;;;;;7.23;4.63;;;13.10;99.90;;;;;;5015627;28;20251;-61
2022/08/07 06:42:41;;;;;;;4.90;4.40;;;13.20;99.90;;;;;;5015019;28;20180;-60
2022/08/07 06:45:12;;;;;;;4.75;4.10;;;13.30;99.90;;;;;;5015027;28;20219;-61
2022/08/07 06:47:38;;;;;;;5.65;4.35;;;13.30;99.90;;;;;;5014724;28;20703;-60
2022/08/07 06:50:05;;;;;;;4.30;3.80;;;13.50;99.90;;;;;;4997383;28;20184;-61
2022/08/07 06:52:35;;;;;;;4.10;3.70;;;13.60;99.90;;;;;;5014994;28;20160;-61
2022/08/07 06:55:08;;;;;;;4.40;3.88;;;13.70;99.90;;;;;;5014830;28;20156;-61
2022/08/07 06:57:34;;;;;;;4.03;3.55;;;13.80;99.90;;;;;;5014479;28;20621;-60
2022/08/07 07:00:00;;;;;;;4.88;3.95;;;14.00;99.90;;;;;;4997477;28;20603;-61
2022/08/07 07:02:27;;;;;;;3.83;3.47;;;14.10;99.90;;;;;;5015751;28;20669;-62
2022/08/07 07:04:53;;;;;;;4.05;3.53;;;14.20;99.90;;;;;;5015245;28;20183;-68
2022/08/07 07:07:19;;;;;;;3.67;3.38;;;14.30;99.90;;;;;;5015057;28;20631;-64
2022/08/07 07:09:47;;;;;;;4.28;3.45;;;14.40;99.90;;;;;;5015582;28;20176;-64
2022/08/07 07:12:12;;;;;;;3.80;3.22;;;14.50;99.90;;;;;;5015337;28;20220;-63
2022/08/07 07:15:00;;;;;;;3.25;2.95;;;14.60;99.90;;;;;;5014472;28;20560;-61
2022/08/07 07:17:32;;;;;;;2.95;2.70;;;14.70;99.90;;;;;;5014831;28;20203;-62
2022/08/07 07:20:01;;;;;;;3.85;2.97;;;14.80;99.90;;;;;;5014417;28;20203;-61
2022/08/07 07:22:28;;;;;;;3.38;3.08;;;15.00;99.90;;;;;;5014426;28;20176;-62
2022/08/07 07:24:55;;;;;;;3.58;3.08;;;15.10;99.90;;;;;;5014588;28;20180;-62
2022/08/07 07:27:25;;;;;;;3.20;2.90;;;15.20;99.90;;;;;;5013949;28;20242;-61
2022/08/07 07:29:56;;;;;;;4.50;3.17;;;15.30;99.90;;;;;;5028939;28;20633;-61
2022/08/07 07:32:24;;;;;;;3.38;2.42;;;15.40;99.90;;;;;;5014574;28;20148;-61
2022/08/07 07:34:54;;;;;;;2.95;2.40;;;15.50;99.90;;;;;;5015465;28;20176;-61
2022/08/07 07:37:23;;;;;;;4.78;2.60;;;15.60;99.90;;;;;;5016142;28;20204;-64
2022/08/07 07:39:52;;;;;;;2.88;2.65;;;15.70;99.90;;;;;;5015056;28;20182;-62
2022/08/07 07:42:21;;;;;;;2.55;2.30;;;15.80;99.90;;;;;;5014451;28;20172;-62
2022/08/07 07:44:48;;;;;;;2.50;2.30;;;16.00;99.90;;;;;;5014497;28;20586;-62
2022/08/07 07:47:16;;;;;;;2.83;2.25;;;16.10;99.90;;;;;;5014229;28;20234;-62
2022/08/07 07:49:44;;;;;;;2.13;2.03;;;16.20;99.90;;;;;;5014401;28;20179;-62
2022/08/07 07:52:11;;;;;;;3.15;2.22;;;16.30;99.90;;;;;;5014182;28;20237;-62
2022/08/07 07:54:41;;;;;;;2.38;2.17;;;16.40;99.90;;;;;;5014068;28;20163;-63
2022/08/07 07:57:10;;;;;;;2.33;2.17;;;16.50;99.90;;;;;;5015169;28;20215;-62
2022/08/07 07:59:39;;;;;;;3.40;2.10;;;16.60;99.90;;;;;;4996388;28;20202;-61
2022/08/07 08:02:06;;;;;;;4.20;2.20;;;16.70;99.90;;;;;;5013770;28;20250;-61
2022/08/07 08:04:34;;;;;;;2.33;2.20;;;16.90;99.90;;;;;;5014325;28;20176;-62
2022/08/07 08:07:00;;;;;;;2.45;1.98;;;17.00;99.90;;;;;;5014693;28;20207;-63
2022/08/07 08:09:28;;;;;;;2.28;1.80;;;17.10;99.90;;;;;;5014505;28;20646;-63
2022/08/07 08:11:55;;;;;;;1.80;1.70;;;17.20;99.90;;;;;;5013730;28;20201;-64
2022/08/07 08:14:21;;;;;;;2.15;1.95;;;17.30;99.90;;;;;;5014214;28;20164;-64
2022/08/07 08:16:50;;;;;;;2.17;1.73;;;17.40;99.90;;;;;;5013518;28;20253;-64
2022/08/07 08:19:18;;;;;;;2.22;1.80;;;17.50;99.90;;;;;;5013984;28;20191;-64
2022/08/07 08:27:28;;;;;;;1.77;1.67;;;17.90;99.90;;;;;;5013427;28;20215;-62
2022/08/07 08:30:07;;;;;;;2.00;1.70;;;18.00;99.90;;;;;;5014096;28;20183;-61
2022/08/07 08:32:40;;;;;;;1.75;1.65;;;18.10;99.90;;;;;;5013745;28;20204;-61
2022/08/07 08:35:12;;;;;;;1.83;1.70;;;18.30;99.90;;;;;;4996402;28;20176;-61
2022/08/07 08:37:40;;;;;;;1.63;1.50;;;18.40;99.90;;;;;;5013380;28;20574;-60
2022/08/07 08:40:12;;;;;;;1.40;1.40;;;18.50;99.90;;;;;;5013606;28;20575;-61
2022/08/07 08:43:03;;;;;;;1.73;1.63;;;18.60;99.90;;;;;;5017089;28;20174;-61
2022/08/07 08:45:40;;;;;;;1.95;1.48;;;18.80;99.90;;;;;;4999770;28;20172;-61
2022/08/07 08:48:29;;;;;;;1.65;1.40;;;18.90;99.90;;;;;;5017397;28;20227;-61
2022/08/07 08:51:00;;;;;;;1.67;1.58;;;19.10;99.90;;;;;;5017533;28;20171;-61
2022/08/07 08:53:44;;;;;;;1.50;1.40;;;19.20;99.90;;;;;;5017363;28;20637;-61
2022/08/07 08:56:18;;;;;;;1.20;1.20;;;19.30;99.90;;;;;;5017306;28;20217;-62
2022/08/07 08:59:21;;;;;;;1.80;1.50;;;19.50;99.90;;;;;;5017226;28;20159;-62
2022/08/07 09:01:53;;;;;;;1.40;1.33;;;19.80;99.90;;;;;;5017448;28;20196;-63
2022/08/07 09:04:42;;;;;;;1.40;1.30;;;20.00;99.90;;;;;;4999502;28;20555;-62
2022/08/07 09:07:34;;;;;;;1.48;1.35;;;20.20;99.90;;;;;;5032056;28;20211;-62
2022/08/07 09:10:18;;;;;;;1.20;1.20;;;20.40;99.90;;;;;;5016561;28;20195;-62
2022/08/07 09:13:13;;;;;;;2.92;1.38;;;20.70;99.90;;;;;;5017000;28;20244;-62
2022/08/07 09:15:47;;;;;;;1.27;1.17;;;21.00;99.90;;;;;;5017399;28;20162;-62
2022/08/07 09:18:35;;;;;;;1.42;1.35;;;21.20;99.90;;;;;;5017053;28;20203;-61
2022/08/07 09:21:42;;;;;;;1.40;1.30;;;21.40;99.90;;;;;;4999373;28;20547;-61
2022/08/07 09:24:55;;;;;;;1.40;1.25;;;21.60;99.90;;;;;;5031919;28;20187;-61
2022/08/07 09:27:29;;;;;;;1.85;1.27;;;21.80;99.90;;;;;;5031772;28;20221;-64
2022/08/07 09:30:10;;;;;;;1.10;1.10;;;22.00;99.90;;;;;;5016874;28;20238;-64
2022/08/07 09:32:53;;;;;;;1.50;1.38;;;22.10;99.90;;;;;;5017038;28;20156;-64
2022/08/07 09:35:43;;;;;;;0.90;0.90;;;22.20;99.90;;;;;;5016561;28;20251;-65
2022/08/07 09:38:23;;;;;;;2.53;1.20;;;22.30;99.90;;;;;;4998700;28;20208;-64
2022/08/07 09:41:12;;;;;;;2.58;1.20;;;22.40;99.90;;;;;;5016582;28;20178;-64
2022/08/07 09:44:00;;;;;;;0.98;0.98;;;22.60;99.90;;;;;;5031342;28;20180;-64
2022/08/07 09:46:44;;;;;;;1.25;1.10;;;22.70;99.90;;;;;;5017792;28;20192;-63
2022/08/07 09:49:29;;;;;;;1.15;1.15;;;22.80;99.90;;;;;;5000111;28;20180;-63
2022/08/07 09:52:23;;;;;;;1.30;1.20;;;22.80;99.90;;;;;;5017910;28;20558;-63
2022/08/07 09:54:57;;;;;;;1.35;1.33;;;22.80;99.90;;;;;;4999641;28;20202;-63
2022/08/07 09:58:01;;;;;;;1.20;1.10;;;23.00;99.90;;;;;;5017725;28;20203;-63
2022/08/07 10:00:42;;;;;;;1.30;1.20;;;23.00;99.90;;;;;;5018071;28;20160;-63
2022/08/07 10:03:29;;;;;;;0.88;0.88;;;23.10;99.90;;;;;;5018003;28;20156;-61
2022/08/07 10:05:58;;;;;;;1.48;1.35;;;23.10;99.90;;;;;;5015876;28;20591;-61
2022/08/07 10:09:01;;;;;;;1.00;1.00;;;23.00;99.90;;;;;;5015741;28;20216;-61
2022/08/07 10:12:00;;;;;;;1.10;1.10;;;23.00;99.90;;;;;;5016359;28;20187;-61
2022/08/07 10:14:45;;;;;;;1.10;1.10;;;23.00;99.90;;;;;;5015462;28;20168;-62
2022/08/07 10:17:32;;;;;;;2.85;1.23;;;23.00;99.90;;;;;;4998062;28;20639;-63
2022/08/07 10:20:46;;;;;;;1.10;1.10;;;23.10;99.90;;;;;;5015754;28;20254;-62
2022/08/07 10:23:37;;;;;;;2.40;1.23;;;23.20;99.90;;;;;;4998473;28;20176;-63
2022/08/07 10:26:19;;;;;;;2.30;1.20;;;23.20;99.90;;;;;;5015892;28;20215;-62
2022/08/07 10:28:58;;;;;;;1.17;1.08;;;23.20;99.90;;;;;;5015830;28;20567;-63
2022/08/07 10:31:45;;;;;;;1.75;1.20;;;23.10;99.90;;;;;;5016273;28;20148;-65
2022/08/07 10:34:32;;;;;;;1.20;1.10;;;23.10;99.90;;;;;;4998828;28;20230;-65
2022/08/07 10:37:04;;;;;;;3.00;1.10;;;23.00;99.90;;;;;;5017380;28;20238;-65
2022/08/07 10:39:51;;;;;;;3.80;1.23;;;22.90;99.90;;;;;;5016284;28;20162;-62
2022/08/07 10:42:35;;;;;;;1.50;1.05;;;23.00;99.90;;;;;;5015647;28;20168;-61
2022/08/07 10:45:19;;;;;;;1.00;1.00;;;23.10;99.90;;;;;;5015224;28;20202;-61
2022/08/07 10:48:15;;;;;;;2.85;1.40;;;23.20;99.90;;;;;;5014941;28;20219;-61
2022/08/07 10:51:15;;;;;;;1.00;1.00;;;23.10;99.90;;;;;;5014970;28;20160;-61
2022/08/07 10:53:59;;;;;;;1.33;1.13;;;23.10;99.90;;;;;;5014914;28;20184;-61
2022/08/07 10:56:53;;;;;;;1.85;1.20;;;23.20;99.90;;;;;;5014865;28;20653;-61
2022/08/07 10:59:43;;;;;;;0.90;0.90;;;23.20;99.90;;;;;;5014636;28;20259;-61
2022/08/07 11:02:45;;;;;;;1.67;1.10;;;23.30;99.90;;;;;;4997109;28;20183;-60
2022/08/07 11:05:34;;;;;;;0.93;0.93;;;23.40;99.90;;;;;;5005586;28;20582;-63
2022/08/07 11:08:32;;;;;;;1.65;0.95;;;23.60;99.90;;;;;;4997652;28;20759;-60
2022/08/07 11:11:22;;;;;;;1.02;0.95;;;23.80;99.90;;;;;;5015348;28;20523;-63
2022/08/07 11:14:12;;;;;;;2.40;1.20;;;24.00;99.90;;;;;;5018381;28;20202;-64
2022/08/07 11:17:03;;;;;;;2.45;1.27;;;24.10;99.90;;;;;;4997411;28;20661;-61
2022/08/07 11:20:04;;;;;;;0.95;0.95;;;24.10;99.90;;;;;;5016188;28;20255;-61
2022/08/07 11:22:39;;;;;;;1.23;0.98;;;24.30;99.90;;;;;;5016503;28;20174;-62
2022/08/07 11:25:19;;;;;;;1.00;1.00;;;24.50;99.90;;;;;;5017037;28;20195;-63
2022/08/07 11:28:14;;;;;;;3.45;1.10;;;24.60;99.90;;;;;;5031101;28;20710;-64
2022/08/07 11:30:51;;;;;;;1.15;1.05;;;24.80;99.90;;;;;;4974128;28;20239;-61
2022/08/07 11:33:27;;;;;;;2.15;0.90;;;25.00;99.90;;;;;;4997976;28;20175;-65
2022/08/07 11:36:15;;;;;;;3.85;1.10;;;25.00;99.90;;;;;;5015055;28;20164;-70
2022/08/07 11:39:02;;;;;;;1.00;0.93;;;25.20;99.90;;;;;;4997594;28;20183;-71
2022/08/07 11:41:34;;;;;;;0.93;0.90;;;25.30;99.90;;;;;;4996695;28;20685;-71
2022/08/07 11:44:15;;;;;;;0.93;0.80;;;25.50;99.90;;;;;;5014105;28;20247;-71
2022/08/07 11:46:47;;;;;;;1.20;1.10;;;25.60;99.90;;;;;;5014684;28;20209;-71
2022/08/07 11:49:23;;;;;;;1.48;1.00;;;25.50;99.90;;;;;;4997313;28;20171;-70
2022/08/07 11:52:03;;;;;;;1.98;1.10;;;25.70;99.90;;;;;;5014483;28;20663;-69
2022/08/07 11:55:00;;;;;;;1.67;0.93;;;25.80;99.90;;;;;;5015845;28;20163;-73
2022/08/07 11:57:41;;;;;;;2.90;1.08;;;25.70;99.90;;;;;;5029019;28;20213;-68
2022/08/07 12:00:17;;;;;;;0.80;0.80;;;25.50;99.90;;;;;;5014211;28;20568;-68
2022/08/07 12:03:02;;;;;;;1.55;1.02;;;25.50;99.90;;;;;;5013799;28;20227;-68
2022/08/07 12:05:33;;;;;;;0.73;0.73;;;25.80;99.90;;;;;;5014092;28;20239;-68
2022/08/07 12:08:22;;;;;;;2.50;1.00;;;25.90;99.90;;;;;;4996032;28;20314;-68
2022/08/07 12:10:55;;;;;;;0.98;0.90;;;26.30;99.90;;;;;;5013837;28;20172;-68
2022/08/07 12:13:39;;;;;;;1.17;0.85;;;26.60;99.90;;;;;;5013870;28;20160;-68
2022/08/07 12:16:15;;;;;;;1.27;1.00;;;26.60;99.90;;;;;;5013769;28;20526;-68
2022/08/07 12:18:47;;;;;;;2.05;0.90;;;26.80;99.90;;;;;;5013668;28;20218;-69
2022/08/07 12:21:38;;;;;;;0.95;0.93;;;26.90;99.90;;;;;;5013760;28;20192;-68
2022/08/07 12:24:17;;;;;;;2.88;1.08;;;27.20;99.90;;;;;;5013702;28;20253;-70
2022/08/07 12:27:04;;;;;;;0.73;0.73;;;27.20;99.90;;;;;;4996206;28;20212;-64
2022/08/07 12:30:04;;;;;;;1.40;0.82;;;27.30;99.90;;;;;;4995784;28;20176;-64
2022/08/07 12:32:41;;;;;;;2.10;1.00;;;27.40;99.90;;;;;;4981974;28;20183;-64
2022/08/07 12:35:11;;;;;;;0.90;0.90;;;27.60;99.90;;;;;;5014473;28;20163;-61
2022/08/07 12:37:39;;;;;;;1.58;0.82;;;27.80;99.90;;;;;;5013485;28;20695;-62
2022/08/07 12:40:07;;;;;;;0.90;0.90;;;28.00;99.90;;;;;;5013734;28;20206;-62
2022/08/07 12:42:35;;;;;;;3.13;1.20;;;28.20;99.90;;;;;;4995535;28;20610;-65
2022/08/07 12:45:14;;;;;;;1.67;0.90;;;28.10;99.90;;;;;;5013494;28;20168;-62
2022/08/07 12:47:48;;;;;;;2.63;1.05;;;28.40;99.90;;;;;;5013703;28;20214;-63
2022/08/07 12:50:33;;;;;;;1.23;1.13;;;28.10;99.90;;;;;;5013735;28;20613;-62
2022/08/07 12:53:06;;;;;;;0.80;0.80;;;28.10;99.90;;;;;;4996103;28;20595;-62
2022/08/07 12:55:45;;;;;;;3.58;1.35;;;28.30;99.90;;;;;;5013301;28;20186;-62
2022/08/07 12:58:16;;;;;;;1.00;0.90;;;28.50;99.90;;;;;;5012859;28;20237;-61
2022/08/07 13:00:58;;;;;;;0.80;0.80;;;28.70;99.90;;;;;;5013866;28;20258;-62
2022/08/07 13:03:57;;;;;;;1.15;1.00;;;28.90;99.90;;;;;;5013691;28;20242;-61
2022/08/07 13:07:06;;;;;;;0.75;0.75;;;28.80;99.90;;;;;;5013301;28;20609;-62
2022/08/07 13:09:53;;;;;;;1.60;0.93;;;28.90;99.90;;;;;;5013408;28;20183;-61
2022/08/07 13:12:42;;;;;;;0.95;0.75;;;28.90;99.90;;;;;;5013456;28;20180;-61
2022/08/07 13:15:23;;;;;;;1.02;0.85;;;29.30;99.90;;;;;;5013113;28;20301;-62
2022/08/07 13:18:02;;;;;;;0.90;0.90;;;29.50;99.90;;;;;;5013148;28;20204;-61
2022/08/07 13:20:45;;;;;;;1.17;0.90;;;29.60;99.90;;;;;;5013387;28;20164;-61
2022/08/07 13:23:25;;;;;;;1.58;0.82;;;29.80;99.90;;;;;;5013101;28;20648;-61
2022/08/07 13:26:02;;;;;;;1.33;1.23;;;29.80;99.90;;;;;;5013373;28;20167;-61
2022/08/07 13:28:36;;;;;;;1.63;0.98;;;30.10;99.90;;;;;;5015826;28;20207;-61